createdAt,value
2017-04-18T00:00:21.917Z,20.78
2017-04-18T00:01:21.548Z,21.17
2017-04-18T00:02:21.244Z,22.65
2017-04-18T00:03:20.925Z,24.75
2017-04-18T00:04:21.307Z,22.30
2017-04-18T00:05:20.944Z,22.52
2017-04-18T00:06:21.314Z,21.10
2017-04-18T00:07:21.050Z,20.87
2017-04-18T00:08:20.712Z,20.25
2017-04-18T00:09:20.448Z,22.33
2017-04-18T00:10:20.116Z,22.10
2017-04-18T00:11:19.796Z,21.97
2017-04-18T00:12:19.508Z,20.45
2017-04-18T00:13:19.248Z,21.67
2017-04-18T00:14:18.901Z,22.88
2017-04-18T00:15:18.529Z,21.33
2017-04-18T00:16:18.206Z,21.97
2017-04-18T00:17:17.860Z,21.45
2017-04-18T00:18:21.700Z,24.28
2017-04-18T00:19:21.424Z,22.18
2017-04-18T00:20:21.052Z,22.83
2017-04-18T00:21:20.677Z,22.82
2017-04-18T00:22:20.302Z,22.62
2017-04-18T00:23:20.012Z,22.22
2017-04-18T00:24:19.961Z,19.90
2017-04-18T00:25:19.625Z,21.27
2017-04-18T00:26:19.286Z,22.05
2017-04-18T00:27:18.925Z,21.53
2017-04-18T00:28:18.564Z,21.35
2017-04-18T00:29:18.192Z,20.80
2017-04-18T00:30:17.971Z,21.18
2017-04-18T00:31:17.609Z,21.40
2017-04-18T00:32:17.266Z,21.50
2017-04-18T00:33:16.915Z,22.65
2017-04-18T00:34:16.540Z,21.50
2017-04-18T00:35:16.175Z,21.05
2017-04-18T00:36:15.844Z,23.17
2017-04-18T00:37:15.469Z,21.65
2017-04-18T00:38:15.097Z,23.13
2017-04-18T00:39:14.724Z,22.82
2017-04-18T00:40:14.351Z,22.37
2017-04-18T00:41:13.999Z,22.32
2017-04-18T00:42:13.669Z,18.43
2017-04-18T00:43:13.312Z,20.82
2017-04-18T00:44:12.923Z,20.63
2017-04-18T00:45:12.539Z,20.37
2017-04-18T00:46:12.192Z,23.13
2017-04-18T00:47:11.851Z,21.07
2017-04-18T00:48:11.528Z,20.88
2017-04-18T00:49:11.192Z,20.38
2017-04-18T00:50:10.910Z,20.88
2017-04-18T00:51:10.604Z,20.58
2017-04-18T00:52:10.346Z,21.12
2017-04-18T00:53:10.029Z,21.73
2017-04-18T00:54:09.723Z,22.62
2017-04-18T00:55:09.382Z,21.05
2017-04-18T00:56:09.766Z,20.80
2017-04-18T00:57:09.442Z,22.42
2017-04-18T00:58:09.129Z,22.20
2017-04-18T00:59:08.747Z,22.55
2017-04-18T01:00:08.518Z,23.70
2017-04-18T01:01:08.237Z,21.13
2017-04-18T01:02:07.929Z,21.23
2017-04-18T01:03:07.559Z,22.00
2017-04-18T01:04:07.236Z,22.45
2017-04-18T01:05:06.867Z,22.70
2017-04-18T01:06:06.550Z,22.43
2017-04-18T01:07:06.233Z,18.37
2017-04-18T01:08:05.867Z,21.40
2017-04-18T01:09:05.987Z,21.25
2017-04-18T01:10:05.676Z,20.22
2017-04-18T01:11:05.387Z,22.13
2017-04-18T01:12:05.048Z,22.22
2017-04-18T01:13:04.701Z,22.05
2017-04-18T01:14:04.365Z,25.18
2017-04-18T01:15:04.015Z,22.45
2017-04-18T01:16:03.644Z,22.40
2017-04-18T01:17:03.298Z,22.92
2017-04-18T01:18:02.984Z,25.02
2017-04-18T01:19:02.611Z,22.15
2017-04-18T01:20:02.255Z,22.10
2017-04-18T01:21:01.892Z,23.82
2017-04-18T01:22:02.309Z,22.62
2017-04-18T01:23:01.931Z,21.28
2017-04-18T01:24:01.588Z,23.67
2017-04-18T01:25:01.224Z,24.20
2017-04-18T01:26:00.864Z,22.90
2017-04-18T01:27:00.541Z,22.02
2017-04-18T01:28:00.168Z,21.75
2017-04-18T01:28:59.809Z,21.78
2017-04-18T01:29:59.509Z,21.63
2017-04-18T01:30:59.238Z,21.87
2017-04-18T01:31:58.848Z,21.80
2017-04-18T01:32:58.497Z,21.40
2017-04-18T01:33:58.133Z,22.50
2017-04-18T01:34:57.768Z,22.53
2017-04-18T01:35:57.440Z,20.43
2017-04-18T01:36:57.055Z,22.13
2017-04-18T01:37:56.685Z,20.97
2017-04-18T01:38:56.335Z,21.88
2017-04-18T01:40:00.134Z,20.85
2017-04-18T01:41:05.204Z,21.27
2017-04-18T01:42:10.094Z,20.95
2017-04-18T01:43:15.077Z,22.62
2017-04-18T01:45:22.695Z,20.72
2017-04-18T01:46:39.749Z,20.10
2017-04-18T01:47:39.368Z,20.08
2017-04-18T01:48:39.006Z,21.33
2017-04-18T01:49:38.625Z,21.15
2017-04-18T01:50:38.249Z,21.93
2017-04-18T01:51:37.876Z,20.78
2017-04-18T01:52:37.550Z,21.27
2017-04-18T01:53:37.187Z,20.50
2017-04-18T01:54:36.808Z,20.07
2017-04-18T01:55:36.425Z,20.13
2017-04-18T01:56:36.065Z,21.38
2017-04-18T01:57:35.693Z,22.02
2017-04-18T01:58:35.373Z,21.30
2017-04-18T01:59:34.981Z,21.83
2017-04-18T02:00:34.645Z,22.38
2017-04-18T02:01:34.284Z,21.60
2017-04-18T02:02:34.385Z,19.98
2017-04-18T02:03:34.083Z,20.02
2017-04-18T02:04:33.776Z,20.58
2017-04-18T02:05:34.241Z,21.52
2017-04-18T02:06:33.931Z,19.50
2017-04-18T02:07:33.559Z,18.28
2017-04-18T02:08:33.196Z,20.50
2017-04-18T02:09:32.872Z,21.00
2017-04-18T02:10:32.509Z,21.48
2017-04-18T02:11:32.151Z,21.23
2017-04-18T02:12:31.883Z,22.80
2017-04-18T02:13:31.540Z,20.30
2017-04-18T02:14:31.177Z,19.32
2017-04-18T02:15:30.865Z,21.80
2017-04-18T02:16:31.232Z,21.17
2017-04-18T02:17:30.860Z,20.60
2017-04-18T02:18:30.583Z,19.03
2017-04-18T02:19:30.205Z,20.00
2017-04-18T02:20:29.855Z,18.13
2017-04-18T02:21:29.563Z,19.90
2017-04-18T02:22:29.164Z,20.17
2017-04-18T02:23:28.781Z,21.15
2017-04-18T02:24:28.412Z,19.63
2017-04-18T02:25:28.001Z,21.90
2017-04-18T02:26:27.642Z,22.30
2017-04-18T02:27:27.356Z,22.93
2017-04-18T02:28:27.731Z,19.57
2017-04-18T02:29:27.337Z,20.55
2017-04-18T02:30:26.969Z,22.07
2017-04-18T02:31:26.661Z,24.42
2017-04-18T02:32:26.301Z,24.03
2017-04-18T02:33:25.990Z,21.88
2017-04-18T02:34:25.608Z,23.80
2017-04-18T02:35:25.276Z,24.13
2017-04-18T02:36:24.911Z,22.93
2017-04-18T02:37:24.646Z,23.35
2017-04-18T02:38:24.275Z,21.87
2017-04-18T02:39:24.041Z,25.13
2017-04-18T02:40:23.669Z,21.88
2017-04-18T02:41:23.285Z,24.25
2017-04-18T02:42:22.915Z,23.12
2017-04-18T02:43:22.504Z,21.30
2017-04-18T02:44:22.139Z,26.55
2017-04-18T02:45:21.925Z,22.90
2017-04-18T02:46:21.532Z,23.78
2017-04-18T02:47:21.176Z,26.52
2017-04-18T02:48:20.810Z,26.05
2017-04-18T02:49:20.453Z,26.27
2017-04-18T02:50:20.078Z,24.92
2017-04-18T02:51:19.768Z,25.78
2017-04-18T02:52:19.411Z,27.77
2017-04-18T02:53:19.076Z,26.45
2017-04-18T02:54:18.766Z,27.42
2017-04-18T02:55:18.448Z,25.45
2017-04-18T02:56:18.123Z,28.40
2017-04-18T02:57:17.852Z,25.72
2017-04-18T02:58:17.536Z,28.20
2017-04-18T02:59:17.221Z,25.38
2017-04-18T03:00:16.848Z,27.15
2017-04-18T03:01:16.452Z,28.00
2017-04-18T03:02:16.091Z,29.28
2017-04-18T03:03:15.763Z,29.35
2017-04-18T03:04:15.400Z,27.37
2017-04-18T03:05:14.983Z,29.77
2017-04-18T03:06:14.688Z,31.37
2017-04-18T03:07:14.342Z,28.97
2017-04-18T03:08:13.959Z,30.63
2017-04-18T03:09:13.624Z,32.43
2017-04-18T03:10:13.359Z,29.85
2017-04-18T03:11:13.749Z,28.50
2017-04-18T03:12:13.371Z,29.65
2017-04-18T03:13:13.737Z,32.43
2017-04-18T03:14:13.501Z,30.52
2017-04-18T03:15:13.178Z,32.18
2017-04-18T03:16:12.820Z,31.80
2017-04-18T03:17:12.443Z,33.75
2017-04-18T03:18:12.069Z,31.57
2017-04-18T03:19:12.433Z,33.22
2017-04-18T03:20:12.056Z,30.55
2017-04-18T03:21:11.784Z,31.00
2017-04-18T03:22:11.439Z,34.65
2017-04-18T03:23:11.060Z,31.20
2017-04-18T03:24:10.775Z,31.23
2017-04-18T03:25:11.191Z,34.65
2017-04-18T03:26:10.816Z,30.55
2017-04-18T03:27:10.482Z,34.45
2017-04-18T03:28:10.108Z,32.18
2017-04-18T03:29:09.735Z,32.08
2017-04-18T03:30:10.227Z,32.83
2017-04-18T03:31:09.892Z,34.00
2017-04-18T03:32:09.691Z,28.85
2017-04-18T03:33:09.388Z,29.45
2017-04-18T03:34:09.044Z,32.98
2017-04-18T03:35:08.787Z,33.10
2017-04-18T03:36:09.180Z,31.63
2017-04-18T03:37:08.884Z,30.40
2017-04-18T03:38:08.679Z,30.88
2017-04-18T03:39:08.327Z,34.28
2017-04-18T03:40:07.944Z,30.73
2017-04-18T03:41:07.565Z,29.92
2017-04-18T03:42:07.209Z,30.13
2017-04-18T03:43:06.841Z,32.57
2017-04-18T03:44:06.564Z,31.07
2017-04-18T03:45:06.201Z,32.88
2017-04-18T03:46:05.833Z,31.75
2017-04-18T03:47:05.455Z,32.43
2017-04-18T03:48:05.089Z,35.13
2017-04-18T03:49:04.716Z,30.00
2017-04-18T03:50:04.410Z,31.20
2017-04-18T03:51:04.036Z,31.40
2017-04-18T03:52:03.722Z,29.35
2017-04-18T03:53:03.365Z,30.17
2017-04-18T03:54:03.067Z,26.25
2017-04-18T03:55:02.753Z,31.22
2017-04-18T03:56:03.214Z,29.45
2017-04-18T03:57:02.837Z,29.47
2017-04-18T03:58:02.464Z,29.25
2017-04-18T03:59:02.135Z,29.07
2017-04-18T04:00:01.755Z,30.30
2017-04-18T04:01:01.378Z,29.43
2017-04-18T04:02:01.083Z,32.15
2017-04-18T04:03:00.727Z,28.88
2017-04-18T04:04:00.449Z,28.85
2017-04-18T04:05:00.073Z,32.10
2017-04-18T04:05:59.724Z,28.57
2017-04-18T04:06:59.344Z,30.87
2017-04-18T04:07:59.858Z,31.13
2017-04-18T04:08:59.489Z,29.52
2017-04-18T04:09:59.189Z,28.08
2017-04-18T04:10:58.862Z,25.23
2017-04-18T04:11:58.484Z,27.67
2017-04-18T04:12:58.091Z,26.42
2017-04-18T04:13:57.841Z,27.03
2017-04-18T04:14:57.455Z,28.73
2017-04-18T04:15:57.077Z,29.07
2017-04-18T04:16:56.833Z,29.73
2017-04-18T04:17:56.464Z,28.22
2017-04-18T04:18:56.292Z,29.13
2017-04-18T04:19:56.031Z,28.80
2017-04-18T04:20:56.397Z,28.13
2017-04-18T04:21:56.015Z,28.73
2017-04-18T04:22:55.637Z,27.57
2017-04-18T04:23:55.981Z,26.75
2017-04-18T04:24:55.752Z,26.45
2017-04-18T04:25:56.138Z,27.53
2017-04-18T04:26:55.867Z,26.77
2017-04-18T04:27:55.510Z,28.02
2017-04-18T04:28:55.257Z,24.58
2017-04-18T04:29:54.961Z,24.07
2017-04-18T04:30:54.619Z,22.92
2017-04-18T04:31:54.241Z,22.55
2017-04-18T04:32:54.016Z,21.82
2017-04-18T04:33:53.754Z,22.72
2017-04-18T04:34:54.112Z,24.77
2017-04-18T04:35:53.736Z,24.07
2017-04-18T04:36:53.405Z,23.25
2017-04-18T04:37:53.054Z,24.08
2017-04-18T04:38:52.688Z,23.20
2017-04-18T04:39:52.326Z,22.73
2017-04-18T04:40:51.957Z,25.67
2017-04-18T04:41:51.647Z,24.05
2017-04-18T04:42:51.343Z,24.00
2017-04-18T04:43:51.711Z,26.65
2017-04-18T04:44:51.344Z,25.15
2017-04-18T04:45:51.019Z,25.28
2017-04-18T04:46:50.651Z,25.30
2017-04-18T04:47:51.003Z,28.55
2017-04-18T04:48:50.653Z,26.53
2017-04-18T04:49:50.280Z,26.58
2017-04-18T04:50:49.900Z,27.97
2017-04-18T04:51:49.516Z,27.63
2017-04-18T04:52:49.137Z,28.38
2017-04-18T04:53:48.849Z,28.73
2017-04-18T04:54:48.504Z,28.83
2017-04-18T04:55:48.147Z,28.52
2017-04-18T04:56:47.784Z,28.87
2017-04-18T04:57:47.408Z,27.27
2017-04-18T04:58:47.134Z,28.82
2017-04-18T04:59:46.781Z,28.03
2017-04-18T05:00:46.475Z,28.73
2017-04-18T05:01:46.083Z,30.70
2017-04-18T05:02:45.705Z,26.60
2017-04-18T05:03:45.309Z,29.08
2017-04-18T05:04:45.668Z,26.65
2017-04-18T05:05:45.301Z,29.42
2017-04-18T05:06:44.999Z,30.43
2017-04-18T05:07:44.632Z,29.87
2017-04-18T05:08:44.272Z,30.03
2017-04-18T05:09:44.021Z,28.37
2017-04-18T05:10:44.459Z,29.90
2017-04-18T05:11:44.168Z,26.15
2017-04-18T05:12:43.786Z,29.87
2017-04-18T05:13:43.420Z,30.63
2017-04-18T05:14:43.048Z,27.45
2017-04-18T05:15:42.680Z,27.83
2017-04-18T05:16:42.420Z,28.70
2017-04-18T05:17:42.101Z,27.70
2017-04-18T05:18:41.819Z,27.00
2017-04-18T05:19:41.458Z,26.08
2017-04-18T05:20:41.091Z,24.02
2017-04-18T05:21:40.810Z,28.90
2017-04-18T05:22:40.443Z,27.42
2017-04-18T05:23:40.140Z,29.58
2017-04-18T05:24:39.772Z,26.70
2017-04-18T05:25:39.401Z,28.92
2017-04-18T05:26:39.033Z,29.02
2017-04-18T05:27:38.653Z,27.55
2017-04-18T05:28:38.376Z,29.05
2017-04-18T05:29:38.027Z,26.95
2017-04-18T05:30:37.680Z,25.53
2017-04-18T05:31:37.334Z,27.27
2017-04-18T05:32:36.980Z,25.07
2017-04-18T05:33:37.420Z,24.33
2017-04-18T05:34:37.195Z,27.23
2017-04-18T05:35:37.314Z,25.95
2017-04-18T05:36:36.974Z,27.33
2017-04-18T05:37:36.628Z,25.98
2017-04-18T05:38:36.276Z,25.67
2017-04-18T05:39:35.891Z,24.75
2017-04-18T05:40:36.314Z,28.22
2017-04-18T05:41:35.988Z,26.25
2017-04-18T05:42:35.649Z,27.03
2017-04-18T05:43:35.276Z,26.53
2017-04-18T05:44:34.906Z,27.90
2017-04-18T05:45:34.515Z,26.77
2017-04-18T05:46:34.262Z,26.88
2017-04-18T05:47:33.955Z,27.37
2017-04-18T05:48:33.688Z,29.17
2017-04-18T05:49:33.386Z,28.45
2017-04-18T05:50:33.213Z,27.60
2017-04-18T05:51:32.835Z,33.47
2017-04-18T05:52:32.468Z,25.82
2017-04-18T05:53:32.436Z,32.45
2017-04-18T05:54:32.064Z,29.48
2017-04-18T05:55:31.701Z,31.92
2017-04-18T05:56:31.351Z,31.43
2017-04-18T05:57:31.031Z,28.53
2017-04-18T05:58:30.721Z,29.38
2017-04-18T05:59:30.460Z,26.05
2017-04-18T06:00:30.165Z,26.83
2017-04-18T06:01:29.838Z,26.93
2017-04-18T06:02:29.514Z,28.57
2017-04-18T06:03:29.199Z,27.83
2017-04-18T06:04:29.681Z,24.95
2017-04-18T06:05:29.386Z,26.72
2017-04-18T06:06:29.076Z,27.92
2017-04-18T06:07:28.791Z,22.07
2017-04-18T06:08:28.424Z,26.80
2017-04-18T06:09:28.032Z,22.08
2017-04-18T06:10:27.648Z,28.23
2017-04-18T06:11:27.309Z,26.63
2017-04-18T06:12:26.923Z,25.40
2017-04-18T06:13:26.660Z,26.32
2017-04-18T06:14:27.015Z,27.17
2017-04-18T06:15:26.659Z,27.63
2017-04-18T06:16:26.369Z,26.73
2017-04-18T06:17:26.025Z,27.23
2017-04-18T06:18:25.639Z,27.20
2017-04-18T06:19:25.263Z,24.77
2017-04-18T06:20:24.963Z,26.82
2017-04-18T06:21:24.615Z,27.42
2017-04-18T06:22:24.354Z,28.95
2017-04-18T06:23:24.042Z,24.52
2017-04-18T06:24:23.752Z,26.23
2017-04-18T06:25:23.385Z,24.43
2017-04-18T06:26:23.142Z,21.77
2017-04-18T06:27:22.765Z,26.62
2017-04-18T06:28:22.398Z,26.25
2017-04-18T06:29:22.075Z,25.72
2017-04-18T06:30:21.705Z,26.48
2017-04-18T06:31:21.333Z,23.95
2017-04-18T06:32:20.978Z,25.33
2017-04-18T06:33:20.605Z,24.23
2017-04-18T06:34:20.303Z,28.58
2017-04-18T06:35:19.992Z,28.98
2017-04-18T06:36:19.621Z,25.27
2017-04-18T06:37:19.248Z,24.98
2017-04-18T06:38:18.856Z,24.05
2017-04-18T06:39:18.498Z,24.35
2017-04-18T06:40:18.207Z,23.62
2017-04-18T06:41:17.879Z,23.08
2017-04-18T06:42:17.503Z,23.48
2017-04-18T06:43:17.864Z,24.88
2017-04-18T06:44:17.488Z,24.23
2017-04-18T06:45:17.139Z,23.47
2017-04-18T06:46:16.765Z,22.05
2017-04-18T06:47:16.477Z,24.77
2017-04-18T06:48:16.105Z,25.18
2017-04-18T06:49:15.798Z,23.12
2017-04-18T06:50:15.411Z,23.20
2017-04-18T06:51:15.033Z,20.50
2017-04-18T06:52:14.700Z,25.03
2017-04-18T06:53:15.400Z,23.72
2017-04-18T06:54:15.110Z,23.08
2017-04-18T06:55:14.732Z,19.50
2017-04-18T06:56:14.354Z,22.77
2017-04-18T06:57:13.967Z,22.93
2017-04-18T06:58:13.595Z,21.62
2017-04-18T06:59:13.370Z,21.73
2017-04-18T07:00:13.094Z,22.67
2017-04-18T07:01:12.812Z,23.33
2017-04-18T07:02:12.458Z,23.42
2017-04-18T07:03:14.650Z,24.25
2017-04-18T07:04:15.096Z,25.33
2017-04-18T07:05:14.735Z,24.82
2017-04-18T07:06:14.458Z,22.43
2017-04-18T07:07:14.088Z,24.17
2017-04-18T07:08:13.729Z,23.38
2017-04-18T07:09:13.397Z,23.88
2017-04-18T07:10:13.050Z,25.77
2017-04-18T07:11:12.717Z,25.03
2017-04-18T07:12:12.351Z,24.65
2017-04-18T07:13:12.043Z,24.95
2017-04-18T07:14:11.647Z,23.50
2017-04-18T07:15:11.349Z,22.97
2017-04-18T07:16:11.037Z,24.53
2017-04-18T07:17:10.688Z,26.70
2017-04-18T07:18:10.317Z,25.85
2017-04-18T07:19:10.027Z,24.15
2017-04-18T07:20:09.667Z,26.60
2017-04-18T07:21:09.297Z,25.68
2017-04-18T07:22:08.951Z,23.07
2017-04-18T07:23:08.572Z,24.20
2017-04-18T07:24:08.199Z,24.72
2017-04-18T07:25:07.909Z,24.28
2017-04-18T07:26:07.569Z,22.48
2017-04-18T07:27:07.184Z,23.78
2017-04-18T07:28:06.856Z,21.68
2017-04-18T07:29:06.488Z,23.18
2017-04-18T07:30:06.196Z,23.97
2017-04-18T07:31:05.824Z,24.42
2017-04-18T07:32:05.476Z,24.65
2017-04-18T07:33:05.137Z,25.23
2017-04-18T07:34:04.906Z,25.65
2017-04-18T07:35:04.642Z,24.72
2017-04-18T07:36:04.272Z,25.40
2017-04-18T07:37:03.928Z,20.85
2017-04-18T07:38:03.567Z,22.62
2017-04-18T07:39:03.228Z,23.87
2017-04-18T07:40:02.892Z,23.45
2017-04-18T07:41:02.574Z,23.77
2017-04-18T07:42:02.213Z,21.33
2017-04-18T07:43:01.846Z,24.18
2017-04-18T07:44:01.472Z,20.00
2017-04-18T07:45:01.123Z,22.07
2017-04-18T07:46:00.791Z,26.05
2017-04-18T07:47:00.408Z,24.93
2017-04-18T07:48:00.061Z,25.00
2017-04-18T07:48:59.722Z,26.82
2017-04-18T07:49:59.337Z,27.12
2017-04-18T07:50:59.041Z,23.02
2017-04-18T07:51:58.680Z,23.62
2017-04-18T07:52:58.281Z,23.27
2017-04-18T07:53:57.913Z,21.28
2017-04-18T07:54:57.575Z,24.05
2017-04-18T07:55:57.206Z,19.83
2017-04-18T07:56:56.859Z,23.60
2017-04-18T07:57:56.485Z,21.50
2017-04-18T07:58:56.128Z,20.98
2017-04-18T07:59:55.814Z,20.83
2017-04-18T08:00:55.470Z,21.20
2017-04-18T08:01:55.103Z,20.23
2017-04-18T08:02:55.489Z,20.10
2017-04-18T08:03:55.201Z,21.40
2017-04-18T08:04:54.821Z,22.58
2017-04-18T08:05:54.438Z,22.42
2017-04-18T08:06:54.085Z,22.00
2017-04-18T08:07:53.714Z,21.62
2017-04-18T08:08:53.356Z,19.67
2017-04-18T08:09:53.105Z,20.10
2017-04-18T08:10:52.837Z,20.17
2017-04-18T08:11:52.477Z,20.57
2017-04-18T08:12:52.164Z,19.23
2017-04-18T08:13:51.864Z,22.30
2017-04-18T08:14:51.490Z,21.18
2017-04-18T08:15:51.896Z,20.98
2017-04-18T08:16:51.608Z,23.95
2017-04-18T08:17:51.223Z,20.38
2017-04-18T08:18:50.880Z,22.07
2017-04-18T08:19:50.575Z,21.55
2017-04-18T08:20:50.201Z,20.57
2017-04-18T08:21:49.869Z,17.60
2017-04-18T08:22:49.517Z,17.87
2017-04-18T08:23:49.144Z,17.95
2017-04-18T08:24:48.772Z,17.22
2017-04-18T08:25:48.392Z,18.03
2017-04-18T08:26:48.025Z,21.13
2017-04-18T08:27:47.714Z,20.53
2017-04-18T08:28:47.377Z,19.17
2017-04-18T08:29:47.016Z,19.12
2017-04-18T08:30:46.773Z,17.37
2017-04-18T08:31:46.381Z,17.95
2017-04-18T08:32:46.015Z,18.10
2017-04-18T08:33:45.687Z,19.57
2017-04-18T08:34:45.338Z,18.03
2017-04-18T08:35:45.046Z,17.83
2017-04-18T08:36:44.754Z,21.12
2017-04-18T08:37:44.418Z,17.67
2017-04-18T08:38:44.048Z,18.30
2017-04-18T08:39:43.724Z,20.37
2017-04-18T08:40:43.356Z,17.75
2017-04-18T08:41:42.984Z,16.33
2017-04-18T08:42:42.601Z,15.93
2017-04-18T08:43:42.280Z,15.13
2017-04-18T08:44:41.928Z,15.15
2017-04-18T08:45:41.609Z,15.65
2017-04-18T08:46:41.333Z,18.37
2017-04-18T08:47:41.062Z,16.95
2017-04-18T08:48:40.721Z,16.22
2017-04-18T08:49:40.391Z,15.32
2017-04-18T08:50:40.122Z,16.87
2017-04-18T08:51:39.850Z,17.45
2017-04-18T08:52:39.482Z,17.97
2017-04-18T08:53:39.136Z,17.85
2017-04-18T08:54:38.773Z,16.23
2017-04-18T08:55:39.146Z,16.73
2017-04-18T08:56:38.796Z,17.57
2017-04-18T08:57:38.477Z,16.93
2017-04-18T08:58:38.098Z,16.03
2017-04-18T08:59:37.728Z,14.38
2017-04-18T09:00:37.464Z,14.30
2017-04-18T09:01:37.112Z,16.48
2017-04-18T09:02:36.739Z,17.30
2017-04-18T09:03:36.399Z,16.30
2017-04-18T09:04:36.051Z,17.08
2017-04-18T09:05:35.680Z,16.40
2017-04-18T09:06:35.312Z,15.12
2017-04-18T09:07:34.976Z,14.22
2017-04-18T09:08:34.692Z,17.25
2017-04-18T09:09:34.355Z,16.98
2017-04-18T09:10:33.988Z,18.88
2017-04-18T09:11:33.684Z,17.95
2017-04-18T09:12:33.321Z,15.85
2017-04-18T09:13:32.940Z,16.95
2017-04-18T09:14:32.570Z,17.90
2017-04-18T09:15:32.985Z,16.72
2017-04-18T09:16:32.631Z,13.75
2017-04-18T09:17:32.713Z,13.98
2017-04-18T09:18:32.344Z,13.48
2017-04-18T09:19:31.986Z,13.48
2017-04-18T09:20:31.687Z,12.35
2017-04-18T09:21:31.413Z,13.25
2017-04-18T09:22:31.045Z,13.32
2017-04-18T09:23:30.780Z,11.48
2017-04-18T09:24:30.408Z,11.65
2017-04-18T09:25:30.027Z,13.72
2017-04-18T09:26:29.662Z,12.23
2017-04-18T09:27:29.320Z,11.13
2017-04-18T09:28:29.047Z,11.17
2017-04-18T09:29:28.765Z,11.82
2017-04-18T09:30:29.133Z,12.97
2017-04-18T09:31:28.759Z,12.87
2017-04-18T09:32:28.476Z,13.72
2017-04-18T09:33:28.136Z,12.80
2017-04-18T09:34:27.753Z,12.52
2017-04-18T09:35:27.357Z,12.33
2017-04-18T09:36:27.166Z,13.83
2017-04-18T09:37:27.528Z,12.53
2017-04-18T09:38:27.145Z,13.05
2017-04-18T09:39:26.822Z,15.27
2017-04-18T09:40:26.452Z,14.77
2017-04-18T09:41:26.174Z,12.48
2017-04-18T09:42:25.816Z,15.92
2017-04-18T09:43:25.485Z,13.07
2017-04-18T09:44:25.675Z,15.68
2017-04-18T09:45:25.433Z,14.05
2017-04-18T09:46:25.057Z,14.60
2017-04-18T09:47:24.693Z,15.20
2017-04-18T09:48:24.325Z,14.82
2017-04-18T09:49:23.952Z,14.52
2017-04-18T09:50:23.661Z,15.78
2017-04-18T09:51:23.351Z,16.27
2017-04-18T09:52:23.260Z,13.87
2017-04-18T09:53:22.897Z,14.32
2017-04-18T09:54:22.555Z,15.13
2017-04-18T09:55:22.196Z,15.85
2017-04-18T09:56:21.832Z,13.07
2017-04-18T09:57:21.571Z,14.88
2017-04-18T09:58:21.210Z,13.00
2017-04-18T09:59:20.845Z,14.67
2017-04-18T10:00:21.227Z,15.92
2017-04-18T10:01:20.942Z,14.07
2017-04-18T10:02:20.655Z,15.90
2017-04-18T10:03:20.353Z,15.12
2017-04-18T10:04:19.983Z,15.10
2017-04-18T10:05:19.608Z,15.92
2017-04-18T10:06:19.226Z,17.18
2017-04-18T10:07:18.840Z,15.67
2017-04-18T10:08:19.198Z,15.17
2017-04-18T10:09:18.891Z,14.37
2017-04-18T10:10:18.562Z,13.55
2017-04-18T10:11:18.197Z,15.22
2017-04-18T10:12:17.847Z,12.72
2017-04-18T10:13:17.541Z,14.08
2017-04-18T10:14:17.172Z,12.95
2017-04-18T10:15:16.834Z,12.97
2017-04-18T10:16:17.219Z,12.25
2017-04-18T10:17:16.849Z,14.58
2017-04-18T10:18:16.545Z,13.63
2017-04-18T10:19:16.900Z,11.30
2017-04-18T10:20:16.534Z,11.93
2017-04-18T10:21:16.221Z,12.23
2017-04-18T10:22:15.851Z,13.17
2017-04-18T10:23:16.201Z,12.37
2017-04-18T10:24:15.841Z,13.32
2017-04-18T10:25:15.867Z,13.63
2017-04-18T10:26:15.543Z,10.97
2017-04-18T10:27:15.218Z,11.55
2017-04-18T10:28:14.821Z,13.78
2017-04-18T10:29:14.449Z,13.47
2017-04-18T10:30:14.145Z,12.60
2017-04-18T10:31:13.850Z,14.48
2017-04-18T10:32:14.220Z,15.43
2017-04-18T10:33:13.936Z,12.68
2017-04-18T10:34:13.636Z,14.27
2017-04-18T10:35:13.472Z,14.70
2017-04-18T10:36:13.109Z,15.87
2017-04-18T10:37:12.800Z,14.58
2017-04-18T10:38:12.432Z,11.43
2017-04-18T10:39:12.133Z,14.48
2017-04-18T10:40:11.745Z,13.60
2017-04-18T10:41:12.122Z,12.78
2017-04-18T10:42:11.792Z,13.93
2017-04-18T10:43:11.407Z,14.55
2017-04-18T10:44:11.035Z,14.45
2017-04-18T10:45:10.710Z,14.03
2017-04-18T10:46:10.295Z,13.83
2017-04-18T10:47:09.920Z,16.37
2017-04-18T10:48:09.646Z,15.75
2017-04-18T10:49:09.293Z,13.63
2017-04-18T10:50:09.042Z,15.40
2017-04-18T10:51:09.461Z,14.93
2017-04-18T10:52:09.089Z,14.53
2017-04-18T10:53:08.829Z,14.47
2017-04-18T10:54:08.441Z,15.28
2017-04-18T10:55:08.159Z,16.57
2017-04-18T10:56:07.783Z,15.68
2017-04-18T10:57:07.495Z,15.73
2017-04-18T10:58:07.109Z,15.65
2017-04-18T10:59:06.736Z,16.12
2017-04-18T11:00:06.358Z,18.57
2017-04-18T11:01:05.984Z,16.55
2017-04-18T11:02:05.620Z,17.22
2017-04-18T11:03:05.352Z,18.50
2017-04-18T11:04:04.997Z,16.68
2017-04-18T11:05:04.722Z,17.92
2017-04-18T11:06:04.391Z,18.22
2017-04-18T11:07:04.093Z,16.90
2017-04-18T11:08:03.816Z,13.53
2017-04-18T11:09:03.548Z,16.35
2017-04-18T11:10:03.185Z,17.88
2017-04-18T11:11:02.814Z,18.05
2017-04-18T11:12:02.447Z,17.47
2017-04-18T11:13:02.066Z,19.03
2017-04-18T11:14:01.679Z,16.57
2017-04-18T11:15:01.368Z,16.55
2017-04-18T11:16:00.991Z,16.43
2017-04-18T11:17:00.627Z,18.57
2017-04-18T11:18:00.245Z,15.80
2017-04-18T11:18:59.887Z,17.80
2017-04-18T11:19:59.582Z,18.20
2017-04-18T11:20:59.247Z,16.23
2017-04-18T11:21:58.864Z,18.85
2017-04-18T11:22:58.573Z,16.88
2017-04-18T11:23:58.217Z,18.47
2017-04-18T11:24:57.841Z,19.23
2017-04-18T11:25:57.470Z,18.57
2017-04-18T11:26:57.163Z,19.07
2017-04-18T11:27:56.778Z,19.77
2017-04-18T11:28:56.405Z,18.05
2017-04-18T11:29:56.027Z,18.45
2017-04-18T11:30:55.756Z,18.45
2017-04-18T11:31:55.390Z,17.62
2017-04-18T11:32:55.341Z,20.63
2017-04-18T11:33:54.997Z,19.15
2017-04-18T11:34:54.625Z,17.52
2017-04-18T11:35:54.295Z,17.95
2017-04-18T11:36:53.908Z,16.52
2017-04-18T11:37:53.616Z,19.97
2017-04-18T11:38:53.314Z,18.03
2017-04-18T11:39:52.965Z,19.50
2017-04-18T11:40:52.659Z,16.70
2017-04-18T11:41:52.352Z,19.40
2017-04-18T11:42:52.070Z,20.60
2017-04-18T11:43:51.813Z,19.27
2017-04-18T11:44:51.618Z,20.82
2017-04-18T11:45:51.328Z,23.82
2017-04-18T11:46:51.778Z,16.75
2017-04-18T11:47:51.599Z,16.65
2017-04-18T11:48:51.334Z,20.43
2017-04-18T11:49:51.015Z,18.32
2017-04-18T11:50:50.764Z,19.02
2017-04-18T11:51:50.428Z,17.00
2017-04-18T11:52:50.898Z,18.78
2017-04-18T11:53:50.660Z,14.83
2017-04-18T11:54:50.570Z,13.87
2017-04-18T11:55:50.334Z,14.90
2017-04-18T11:56:50.040Z,15.23
2017-04-18T11:57:49.804Z,14.10
2017-04-18T11:58:49.497Z,14.50
2017-04-18T11:59:49.151Z,16.02
2017-04-18T12:00:48.873Z,18.98
2017-04-18T12:01:48.709Z,17.23
2017-04-18T12:02:48.579Z,16.47
2017-04-18T12:03:48.359Z,16.50
2017-04-18T12:04:48.166Z,18.03
2017-04-18T12:05:47.958Z,16.00
2017-04-18T12:06:47.712Z,16.48
2017-04-18T12:07:47.597Z,16.88
2017-04-18T12:08:47.384Z,20.10
2017-04-18T12:09:47.205Z,15.62
2017-04-18T12:10:47.064Z,15.10
2017-04-18T12:11:47.034Z,16.47
2017-04-18T12:12:46.913Z,15.78
2017-04-18T12:13:47.116Z,18.53
2017-04-18T12:14:47.095Z,21.82
2017-04-18T12:15:47.557Z,17.13
2017-04-18T12:16:47.473Z,20.18
2017-04-18T12:21:05.661Z,19.97
2017-04-18T12:33:20.487Z,23.08
2017-04-18T12:34:20.267Z,24.30
2017-04-18T12:35:20.118Z,23.30
2017-04-18T12:36:19.858Z,26.00
2017-04-18T12:37:19.532Z,24.40
2017-04-18T12:38:28.725Z,28.13
2017-04-18T12:39:30.340Z,21.35
2017-04-18T12:40:30.602Z,22.85
2017-04-18T12:41:36.686Z,20.08
2017-04-18T12:42:37.910Z,17.08
2017-04-18T12:43:38.541Z,22.52
2017-04-18T12:44:38.541Z,25.12
2017-04-18T12:49:59.789Z,27.80
2017-04-18T12:51:01.119Z,24.77
2017-04-18T12:52:00.957Z,24.48
2017-04-18T12:53:00.721Z,24.22
2017-04-18T12:54:00.693Z,26.37
2017-04-18T12:55:00.828Z,24.42
2017-04-18T12:56:00.523Z,26.33
2017-04-18T12:57:00.266Z,24.92
2017-04-18T12:57:59.934Z,27.35
2017-04-18T12:58:59.840Z,24.12
2017-04-18T13:00:04.048Z,22.63
2017-04-18T13:01:04.031Z,23.55
2017-04-18T13:02:04.128Z,25.05
2017-04-18T13:03:03.822Z,25.10
2017-04-18T13:04:03.543Z,26.63
2017-04-18T13:05:03.309Z,24.27
2017-04-18T13:06:03.046Z,26.95
2017-04-18T13:07:02.858Z,25.00
2017-04-18T13:08:06.394Z,25.50
2017-04-18T13:10:49.195Z,25.77
2017-04-18T13:11:56.589Z,23.25